METAR Data
IDs: Format: Raw Decoded Include TAF

Data at: 1356 UTC 14 Dec 2019

METAR for:KMXO (Monticello Rgnl, IA, US)
Text:KMXO 141335Z AUTO 31008KT 10SM OVC011 M03/M03 A2982 RMK AO2
Temperature: -3.0°C ( 27°F)
Dewpoint: -3.0°C ( 27°F) [RH = 100%]
Pressure (altimeter):29.82 inches Hg (1009.9 mb)
Winds:from the NW (310 degrees) at 9 MPH (8 knots; 4.1 m/s)
Visibility:10 or more sm (16+ km)
Ceiling:1100 feet AGL
Clouds: overcast cloud deck at 1100 feet AGL
QC Flag:automated observation with no human augmentation